sensor_id;sensor_type;location;lat;lon;timestamp;temperature;humidity
5466;DHT22;2755;50.728;7.108;2022-10-26T00:00:08;13.10;99.90
5466;DHT22;2755;50.728;7.108;2022-10-26T00:04:59;13.00;99.90
5466;DHT22;2755;50.728;7.108;2022-10-26T00:07:27;13.30;99.90
5466;DHT22;2755;50.728;7.108;2022-10-26T00:09:53;13.20;99.90
5466;DHT22;2755;50.728;7.108;2022-10-26T00:12:20;12.80;99.90
5466;DHT22;2755;50.728;7.108;2022-10-26T00:14:45;13.00;99.90
5466;DHT22;2755;50.728;7.108;2022-10-26T00:22:03;13.80;99.90
5466;DHT22;2755;50.728;7.108;2022-10-26T00:24:28;12.90;99.90
5466;DHT22;2755;50.728;7.108;2022-10-26T00:26:54;13.20;99.90
5466;DHT22;2755;50.728;7.108;2022-10-26T00:29:19;13.00;99.90
5466;DHT22;2755;50.728;7.108;2022-10-26T00:31:45;13.40;99.90
5466;DHT22;2755;50.728;7.108;2022-10-26T00:34:12;13.50;99.90
5466;DHT22;2755;50.728;7.108;2022-10-26T00:36:37;13.20;99.90
5466;DHT22;2755;50.728;7.108;2022-10-26T00:39:03;13.10;99.90
5466;DHT22;2755;50.728;7.108;2022-10-26T00:41:31;13.10;99.90
5466;DHT22;2755;50.728;7.108;2022-10-26T00:43:58;13.00;99.90
5466;DHT22;2755;50.728;7.108;2022-10-26T00:46:29;13.20;99.90
5466;DHT22;2755;50.728;7.108;2022-10-26T00:49:00;13.50;99.90
5466;DHT22;2755;50.728;7.108;2022-10-26T00:51:31;13.40;99.90
5466;DHT22;2755;50.728;7.108;2022-10-26T00:54:00;13.70;99.90
5466;DHT22;2755;50.728;7.108;2022-10-26T00:56:27;13.30;99.90
5466;DHT22;2755;50.728;7.108;2022-10-26T00:58:54;13.30;99.90
5466;DHT22;2755;50.728;7.108;2022-10-26T01:01:23;13.50;99.90
5466;DHT22;2755;50.728;7.108;2022-10-26T01:03:48;13.10;99.90
5466;DHT22;2755;50.728;7.108;2022-10-26T01:06:14;13.20;99.90
5466;DHT22;2755;50.728;7.108;2022-10-26T01:08:41;12.90;99.90
5466;DHT22;2755;50.728;7.108;2022-10-26T01:11:07;13.50;99.90
5466;DHT22;2755;50.728;7.108;2022-10-26T01:30:14;13.40;99.90
5466;DHT22;2755;50.728;7.108;2022-10-26T01:40:58;13.80;99.90
5466;DHT22;2755;50.728;7.108;2022-10-26T01:43:27;13.50;99.90
5466;DHT22;2755;50.728;7.108;2022-10-26T01:45:55;13.30;99.90
5466;DHT22;2755;50.728;7.108;2022-10-26T01:48:22;13.40;99.90
5466;DHT22;2755;50.728;7.108;2022-10-26T01:50:51;13.50;99.90
5466;DHT22;2755;50.728;7.108;2022-10-26T01:53:18;13.60;99.90
5466;DHT22;2755;50.728;7.108;2022-10-26T01:55:48;13.70;99.90
5466;DHT22;2755;50.728;7.108;2022-10-26T02:06:34;13.60;99.90
5466;DHT22;2755;50.728;7.108;2022-10-26T02:11:50;13.90;99.90
5466;DHT22;2755;50.728;7.108;2022-10-26T02:19:43;13.60;99.90
5466;DHT22;2755;50.728;7.108;2022-10-26T02:22:20;13.50;99.90
5466;DHT22;2755;50.728;7.108;2022-10-26T02:24:47;14.00;99.90
5466;DHT22;2755;50.728;7.108;2022-10-26T02:27:27;12.90;99.90
5466;DHT22;2755;50.728;7.108;2022-10-26T02:29:56;13.60;99.90
5466;DHT22;2755;50.728;7.108;2022-10-26T02:32:25;13.90;99.90
5466;DHT22;2755;50.728;7.108;2022-10-26T02:34:52;14.10;99.90
5466;DHT22;2755;50.728;7.108;2022-10-26T02:37:21;13.80;99.90
5466;DHT22;2755;50.728;7.108;2022-10-26T02:39:50;14.10;99.90
5466;DHT22;2755;50.728;7.108;2022-10-26T02:42:17;13.70;99.90
5466;DHT22;2755;50.728;7.108;2022-10-26T02:45:04;13.80;99.90
5466;DHT22;2755;50.728;7.108;2022-10-26T02:47:32;13.70;99.90
5466;DHT22;2755;50.728;7.108;2022-10-26T02:49:58;13.80;99.90
5466;DHT22;2755;50.728;7.108;2022-10-26T02:53:02;13.50;99.90
5466;DHT22;2755;50.728;7.108;2022-10-26T02:55:42;13.70;99.90
5466;DHT22;2755;50.728;7.108;2022-10-26T02:58:17;14.10;99.90
5466;DHT22;2755;50.728;7.108;2022-10-26T03:00:44;13.90;99.90
5466;DHT22;2755;50.728;7.108;2022-10-26T03:03:11;14.00;99.90
5466;DHT22;2755;50.728;7.108;2022-10-26T03:05:41;13.90;99.90
5466;DHT22;2755;50.728;7.108;2022-10-26T03:08:07;13.70;99.90
5466;DHT22;2755;50.728;7.108;2022-10-26T03:10:34;13.80;99.90
5466;DHT22;2755;50.728;7.108;2022-10-26T03:13:03;14.00;99.90
5466;DHT22;2755;50.728;7.108;2022-10-26T03:15:28;14.10;99.90
5466;DHT22;2755;50.728;7.108;2022-10-26T03:17:54;14.20;99.90
5466;DHT22;2755;50.728;7.108;2022-10-26T03:20:19;13.60;99.90
5466;DHT22;2755;50.728;7.108;2022-10-26T03:22:46;13.70;99.90
5466;DHT22;2755;50.728;7.108;2022-10-26T03:25:12;13.60;99.90
5466;DHT22;2755;50.728;7.108;2022-10-26T03:27:40;13.60;99.90
5466;DHT22;2755;50.728;7.108;2022-10-26T03:30:06;13.70;99.90
5466;DHT22;2755;50.728;7.108;2022-10-26T03:32:32;13.60;99.90
5466;DHT22;2755;50.728;7.108;2022-10-26T03:34:57;13.60;99.90
5466;DHT22;2755;50.728;7.108;2022-10-26T03:37:23;13.30;99.90
5466;DHT22;2755;50.728;7.108;2022-10-26T03:39:49;13.50;99.90
5466;DHT22;2755;50.728;7.108;2022-10-26T03:42:14;13.30;99.90
5466;DHT22;2755;50.728;7.108;2022-10-26T03:44:40;13.20;99.90
5466;DHT22;2755;50.728;7.108;2022-10-26T03:49:32;13.60;99.90
5466;DHT22;2755;50.728;7.108;2022-10-26T03:51:57;12.80;99.90
5466;DHT22;2755;50.728;7.108;2022-10-26T03:54:23;12.70;99.90
5466;DHT22;2755;50.728;7.108;2022-10-26T03:56:49;13.40;99.90
5466;DHT22;2755;50.728;7.108;2022-10-26T03:59:14;13.70;99.90
5466;DHT22;2755;50.728;7.108;2022-10-26T04:01:40;13.30;99.90
5466;DHT22;2755;50.728;7.108;2022-10-26T04:06:32;13.40;99.90
5466;DHT22;2755;50.728;7.108;2022-10-26T04:13:52;13.40;99.90
5466;DHT22;2755;50.728;7.108;2022-10-26T04:16:18;13.30;99.90
5466;DHT22;2755;50.728;7.108;2022-10-26T04:18:44;13.40;99.90
5466;DHT22;2755;50.728;7.108;2022-10-26T04:21:10;13.00;99.90
5466;DHT22;2755;50.728;7.108;2022-10-26T04:23:36;12.90;99.90
5466;DHT22;2755;50.728;7.108;2022-10-26T04:26:04;13.00;99.90
5466;DHT22;2755;50.728;7.108;2022-10-26T04:28:29;13.20;99.90
5466;DHT22;2755;50.728;7.108;2022-10-26T04:30:55;12.90;99.90
5466;DHT22;2755;50.728;7.108;2022-10-26T04:33:21;13.00;99.90
5466;DHT22;2755;50.728;7.108;2022-10-26T04:35:46;13.80;99.90
5466;DHT22;2755;50.728;7.108;2022-10-26T04:38:12;13.00;99.90
5466;DHT22;2755;50.728;7.108;2022-10-26T04:40:38;13.30;99.90
5466;DHT22;2755;50.728;7.108;2022-10-26T04:43:03;12.60;99.90
5466;DHT22;2755;50.728;7.108;2022-10-26T04:45:29;12.30;99.90
5466;DHT22;2755;50.728;7.108;2022-10-26T04:48:10;13.30;99.90
5466;DHT22;2755;50.728;7.108;2022-10-26T04:53:04;13.00;99.90
5466;DHT22;2755;50.728;7.108;2022-10-26T04:55:29;13.30;99.90
5466;DHT22;2755;50.728;7.108;2022-10-26T05:00:21;12.80;99.90
5466;DHT22;2755;50.728;7.108;2022-10-26T05:05:13;13.20;99.90
5466;DHT22;2755;50.728;7.108;2022-10-26T05:10:04;13.50;99.90
5466;DHT22;2755;50.728;7.108;2022-10-26T05:12:30;13.00;99.90
5466;DHT22;2755;50.728;7.108;2022-10-26T05:14:56;12.90;99.90
5466;DHT22;2755;50.728;7.108;2022-10-26T05:17:24;12.70;99.90
5466;DHT22;2755;50.728;7.108;2022-10-26T05:19:52;12.80;99.90
5466;DHT22;2755;50.728;7.108;2022-10-26T05:22:23;12.90;99.90
5466;DHT22;2755;50.728;7.108;2022-10-26T05:24:49;13.00;99.90
5466;DHT22;2755;50.728;7.108;2022-10-26T05:27:15;13.40;99.90
5466;DHT22;2755;50.728;7.108;2022-10-26T05:29:40;13.00;99.90
5466;DHT22;2755;50.728;7.108;2022-10-26T05:32:06;12.90;99.90
5466;DHT22;2755;50.728;7.108;2022-10-26T05:34:31;13.20;99.90
5466;DHT22;2755;50.728;7.108;2022-10-26T05:36:57;12.30;99.90
5466;DHT22;2755;50.728;7.108;2022-10-26T05:39:22;13.40;99.90
5466;DHT22;2755;50.728;7.108;2022-10-26T05:41:48;13.20;99.90
5466;DHT22;2755;50.728;7.108;2022-10-26T05:44:14;13.00;99.90
5466;DHT22;2755;50.728;7.108;2022-10-26T05:46:39;12.70;99.90
5466;DHT22;2755;50.728;7.108;2022-10-26T05:51:34;12.90;99.90
5466;DHT22;2755;50.728;7.108;2022-10-26T05:54:01;13.20;99.90
5466;DHT22;2755;50.728;7.108;2022-10-26T05:56:38;12.60;99.90
5466;DHT22;2755;50.728;7.108;2022-10-26T06:01:37;12.80;99.90
5466;DHT22;2755;50.728;7.108;2022-10-26T06:06:46;13.10;99.90
5466;DHT22;2755;50.728;7.108;2022-10-26T06:09:14;13.40;99.90
5466;DHT22;2755;50.728;7.108;2022-10-26T06:11:40;12.70;99.90
5466;DHT22;2755;50.728;7.108;2022-10-26T06:14:07;12.90;99.90
5466;DHT22;2755;50.728;7.108;2022-10-26T06:35:38;13.00;99.90
5466;DHT22;2755;50.728;7.108;2022-10-26T06:38:14;13.20;99.90
5466;DHT22;2755;50.728;7.108;2022-10-26T06:40:43;13.00;99.90
5466;DHT22;2755;50.728;7.108;2022-10-26T06:43:23;12.90;99.90
5466;DHT22;2755;50.728;7.108;2022-10-26T06:45:59;12.90;99.90
5466;DHT22;2755;50.728;7.108;2022-10-26T06:48:53;13.10;99.90
5466;DHT22;2755;50.728;7.108;2022-10-26T06:51:22;13.10;99.90
5466;DHT22;2755;50.728;7.108;2022-10-26T06:56:30;13.30;99.90
5466;DHT22;2755;50.728;7.108;2022-10-26T06:59:03;13.20;99.90
5466;DHT22;2755;50.728;7.108;2022-10-26T07:01:29;13.20;99.90
5466;DHT22;2755;50.728;7.108;2022-10-26T07:03:55;13.40;99.90
5466;DHT22;2755;50.728;7.108;2022-10-26T07:06:20;13.00;99.90
5466;DHT22;2755;50.728;7.108;2022-10-26T07:08:46;13.30;99.90
5466;DHT22;2755;50.728;7.108;2022-10-26T07:11:11;14.10;99.90
5466;DHT22;2755;50.728;7.108;2022-10-26T07:13:37;12.90;99.90
5466;DHT22;2755;50.728;7.108;2022-10-26T07:16:03;13.40;99.90
5466;DHT22;2755;50.728;7.108;2022-10-26T07:18:28;13.50;99.90
5466;DHT22;2755;50.728;7.108;2022-10-26T07:20:54;13.50;99.90
5466;DHT22;2755;50.728;7.108;2022-10-26T07:28:13;13.90;99.90
5466;DHT22;2755;50.728;7.108;2022-10-26T07:30:39;13.70;99.90
5466;DHT22;2755;50.728;7.108;2022-10-26T07:33:10;14.30;99.90
5466;DHT22;2755;50.728;7.108;2022-10-26T07:35:36;13.70;99.90
5466;DHT22;2755;50.728;7.108;2022-10-26T07:38:03;13.80;99.90
5466;DHT22;2755;50.728;7.108;2022-10-26T07:40:29;14.10;99.90
5466;DHT22;2755;50.728;7.108;2022-10-26T07:42:59;14.20;99.90
5466;DHT22;2755;50.728;7.108;2022-10-26T07:45:26;14.30;99.90
5466;DHT22;2755;50.728;7.108;2022-10-26T07:47:52;14.50;99.90
5466;DHT22;2755;50.728;7.108;2022-10-26T07:50:18;15.10;99.90
5466;DHT22;2755;50.728;7.108;2022-10-26T07:52:43;14.80;99.90
5466;DHT22;2755;50.728;7.108;2022-10-26T07:55:10;14.90;99.90
5466;DHT22;2755;50.728;7.108;2022-10-26T07:57:36;14.50;99.90
5466;DHT22;2755;50.728;7.108;2022-10-26T08:02:29;14.60;99.90
5466;DHT22;2755;50.728;7.108;2022-10-26T08:04:54;14.10;99.90
5466;DHT22;2755;50.728;7.108;2022-10-26T08:12:12;15.10;99.90
5466;DHT22;2755;50.728;7.108;2022-10-26T08:14:41;15.20;99.90
5466;DHT22;2755;50.728;7.108;2022-10-26T08:17:07;15.60;99.90
5466;DHT22;2755;50.728;7.108;2022-10-26T08:19:32;16.40;99.90
5466;DHT22;2755;50.728;7.108;2022-10-26T08:21:58;16.60;99.90
5466;DHT22;2755;50.728;7.108;2022-10-26T08:24:23;16.60;99.90
5466;DHT22;2755;50.728;7.108;2022-10-26T08:26:49;17.20;99.90
5466;DHT22;2755;50.728;7.108;2022-10-26T08:29:14;16.50;99.90
5466;DHT22;2755;50.728;7.108;2022-10-26T08:34:06;16.20;99.90
5466;DHT22;2755;50.728;7.108;2022-10-26T08:38:58;15.90;99.90
5466;DHT22;2755;50.728;7.108;2022-10-26T08:41:43;16.30;99.90
5466;DHT22;2755;50.728;7.108;2022-10-26T08:44:19;16.10;99.90
5466;DHT22;2755;50.728;7.108;2022-10-26T08:46:50;15.70;99.90
5466;DHT22;2755;50.728;7.108;2022-10-26T08:49:26;16.00;99.90
5466;DHT22;2755;50.728;7.108;2022-10-26T08:51:58;16.10;99.90
5466;DHT22;2755;50.728;7.108;2022-10-26T08:54:37;16.00;99.90
5466;DHT22;2755;50.728;7.108;2022-10-26T08:59:43;16.20;99.90
5466;DHT22;2755;50.728;7.108;2022-10-26T09:02:15;16.20;99.90
5466;DHT22;2755;50.728;7.108;2022-10-26T09:04:41;15.70;99.90
5466;DHT22;2755;50.728;7.108;2022-10-26T09:15:14;16.30;99.90
5466;DHT22;2755;50.728;7.108;2022-10-26T09:25:44;16.30;99.90
5466;DHT22;2755;50.728;7.108;2022-10-26T09:28:16;16.80;99.90
5466;DHT22;2755;50.728;7.108;2022-10-26T09:30:45;17.30;99.90
5466;DHT22;2755;50.728;7.108;2022-10-26T09:33:15;18.40;99.90
5466;DHT22;2755;50.728;7.108;2022-10-26T09:35:50;19.70;99.90
5466;DHT22;2755;50.728;7.108;2022-10-26T09:38:29;19.80;99.90
5466;DHT22;2755;50.728;7.108;2022-10-26T09:43:54;19.60;99.90
5466;DHT22;2755;50.728;7.108;2022-10-26T09:46:36;19.90;99.90
5466;DHT22;2755;50.728;7.108;2022-10-26T09:49:07;20.00;99.90
5466;DHT22;2755;50.728;7.108;2022-10-26T09:51:37;20.00;99.90
5466;DHT22;2755;50.728;7.108;2022-10-26T09:54:17;19.80;99.90
5466;DHT22;2755;50.728;7.108;2022-10-26T09:56:45;19.60;99.90
5466;DHT22;2755;50.728;7.108;2022-10-26T10:06:42;21.00;99.90
5466;DHT22;2755;50.728;7.108;2022-10-26T10:09:14;21.30;99.90
5466;DHT22;2755;50.728;7.108;2022-10-26T10:14:15;21.20;99.90
5466;DHT22;2755;50.728;7.108;2022-10-26T10:16:58;20.50;99.90
5466;DHT22;2755;50.728;7.108;2022-10-26T10:19:30;19.90;99.90
5466;DHT22;2755;50.728;7.108;2022-10-26T10:21:58;20.00;99.90
5466;DHT22;2755;50.728;7.108;2022-10-26T10:24:28;20.50;99.90
5466;DHT22;2755;50.728;7.108;2022-10-26T10:29:29;20.60;99.90
5466;DHT22;2755;50.728;7.108;2022-10-26T10:32:00;20.90;99.90
5466;DHT22;2755;50.728;7.108;2022-10-26T10:34:29;21.50;99.90
5466;DHT22;2755;50.728;7.108;2022-10-26T10:39:41;22.50;99.90
5466;DHT22;2755;50.728;7.108;2022-10-26T10:42:19;22.90;99.90
5466;DHT22;2755;50.728;7.108;2022-10-26T10:44:46;23.00;99.90
5466;DHT22;2755;50.728;7.108;2022-10-26T10:47:49;23.70;99.90
5466;DHT22;2755;50.728;7.108;2022-10-26T10:55:16;25.30;96.60
5466;DHT22;2755;50.728;7.108;2022-10-26T11:03:30;25.60;93.20
5466;DHT22;2755;50.728;7.108;2022-10-26T11:08:47;25.10;93.90
5466;DHT22;2755;50.728;7.108;2022-10-26T11:16:27;23.50;95.70
5466;DHT22;2755;50.728;7.108;2022-10-26T11:19:15;23.50;96.60
5466;DHT22;2755;50.728;7.108;2022-10-26T11:21:47;23.30;96.70
5466;DHT22;2755;50.728;7.108;2022-10-26T11:24:21;23.20;97.20
5466;DHT22;2755;50.728;7.108;2022-10-26T11:29:36;23.10;96.80
5466;DHT22;2755;50.728;7.108;2022-10-26T11:37:12;22.90;97.20
5466;DHT22;2755;50.728;7.108;2022-10-26T11:39:45;22.80;97.20
5466;DHT22;2755;50.728;7.108;2022-10-26T11:44:50;22.50;98.80
5466;DHT22;2755;50.728;7.108;2022-10-26T11:47:23;22.40;99.30
5466;DHT22;2755;50.728;7.108;2022-10-26T11:50:14;22.30;98.40
5466;DHT22;2755;50.728;7.108;2022-10-26T12:00:13;22.60;99.90
5466;DHT22;2755;50.728;7.108;2022-10-26T12:02:41;22.00;99.40
5466;DHT22;2755;50.728;7.108;2022-10-26T12:05:21;22.40;99.70
5466;DHT22;2755;50.728;7.108;2022-10-26T12:07:54;22.20;99.10
5466;DHT22;2755;50.728;7.108;2022-10-26T12:10:28;22.10;99.20
5466;DHT22;2755;50.728;7.108;2022-10-26T12:18:08;22.20;98.80
5466;DHT22;2755;50.728;7.108;2022-10-26T12:20:59;22.20;98.70
5466;DHT22;2755;50.728;7.108;2022-10-26T12:23:31;22.10;99.90
5466;DHT22;2755;50.728;7.108;2022-10-26T12:26:36;22.00;98.70
5466;DHT22;2755;50.728;7.108;2022-10-26T12:47:08;22.00;99.90
5466;DHT22;2755;50.728;7.108;2022-10-26T12:52:39;22.30;99.80
5466;DHT22;2755;50.728;7.108;2022-10-26T12:57:53;22.50;99.90
5466;DHT22;2755;50.728;7.108;2022-10-26T13:00:23;22.10;99.00
5466;DHT22;2755;50.728;7.108;2022-10-26T13:03:18;22.40;98.80
5466;DHT22;2755;50.728;7.108;2022-10-26T13:08:51;22.60;99.60
5466;DHT22;2755;50.728;7.108;2022-10-26T13:11:35;23.00;99.70
5466;DHT22;2755;50.728;7.108;2022-10-26T13:14:06;22.30;99.90
5466;DHT22;2755;50.728;7.108;2022-10-26T13:16:33;22.20;99.90
5466;DHT22;2755;50.728;7.108;2022-10-26T13:21:26;22.40;98.90
5466;DHT22;2755;50.728;7.108;2022-10-26T13:26:20;22.50;99.80
5466;DHT22;2755;50.728;7.108;2022-10-26T13:28:50;22.60;99.90
5466;DHT22;2755;50.728;7.108;2022-10-26T13:34:14;22.20;98.30
5466;DHT22;2755;50.728;7.108;2022-10-26T13:36:45;22.20;98.80
5466;DHT22;2755;50.728;7.108;2022-10-26T13:41:44;22.20;99.20
5466;DHT22;2755;50.728;7.108;2022-10-26T13:44:22;22.10;99.20
5466;DHT22;2755;50.728;7.108;2022-10-26T13:46:54;21.60;99.90
5466;DHT22;2755;50.728;7.108;2022-10-26T13:52:01;22.20;98.90
5466;DHT22;2755;50.728;7.108;2022-10-26T13:54:34;22.20;98.90
5466;DHT22;2755;50.728;7.108;2022-10-26T13:57:21;22.00;99.40
5466;DHT22;2755;50.728;7.108;2022-10-26T13:59:53;22.80;99.70
5466;DHT22;2755;50.728;7.108;2022-10-26T14:02:27;22.30;98.80
5466;DHT22;2755;50.728;7.108;2022-10-26T14:05:02;22.00;99.30
5466;DHT22;2755;50.728;7.108;2022-10-26T14:10:44;21.90;97.80
5466;DHT22;2755;50.728;7.108;2022-10-26T14:13:15;21.80;97.90
5466;DHT22;2755;50.728;7.108;2022-10-26T14:15:43;21.80;97.40
5466;DHT22;2755;50.728;7.108;2022-10-26T14:18:18;21.80;97.60
5466;DHT22;2755;50.728;7.108;2022-10-26T14:20:54;22.30;99.20
5466;DHT22;2755;50.728;7.108;2022-10-26T14:23:51;21.40;97.80
5466;DHT22;2755;50.728;7.108;2022-10-26T14:26:22;21.50;97.90
5466;DHT22;2755;50.728;7.108;2022-10-26T14:28:51;21.50;98.00
5466;DHT22;2755;50.728;7.108;2022-10-26T14:31:23;21.60;99.50
5466;DHT22;2755;50.728;7.108;2022-10-26T14:33:50;21.30;99.40
5466;DHT22;2755;50.728;7.108;2022-10-26T14:36:19;21.70;99.00
5466;DHT22;2755;50.728;7.108;2022-10-26T14:38:48;21.30;98.60
5466;DHT22;2755;50.728;7.108;2022-10-26T14:41:16;21.30;99.00
5466;DHT22;2755;50.728;7.108;2022-10-26T14:43:43;21.00;98.80
5466;DHT22;2755;50.728;7.108;2022-10-26T14:46:16;21.20;98.70
5466;DHT22;2755;50.728;7.108;2022-10-26T14:51:27;21.30;99.60
5466;DHT22;2755;50.728;7.108;2022-10-26T14:53:56;21.10;99.10
5466;DHT22;2755;50.728;7.108;2022-10-26T14:58:50;21.00;99.90
5466;DHT22;2755;50.728;7.108;2022-10-26T15:03:55;21.00;99.40
5466;DHT22;2755;50.728;7.108;2022-10-26T15:06:37;20.90;99.50
5466;DHT22;2755;50.728;7.108;2022-10-26T15:09:03;20.90;99.70
5466;DHT22;2755;50.728;7.108;2022-10-26T15:11:32;20.20;99.70
5466;DHT22;2755;50.728;7.108;2022-10-26T15:16:26;20.50;99.90
5466;DHT22;2755;50.728;7.108;2022-10-26T15:18:58;20.70;99.90
5466;DHT22;2755;50.728;7.108;2022-10-26T15:21:30;20.60;99.90
5466;DHT22;2755;50.728;7.108;2022-10-26T15:23:57;20.60;99.90
5466;DHT22;2755;50.728;7.108;2022-10-26T15:26:24;20.50;99.90
5466;DHT22;2755;50.728;7.108;2022-10-26T15:28:50;20.70;99.90
5466;DHT22;2755;50.728;7.108;2022-10-26T15:36:25;20.00;99.90
5466;DHT22;2755;50.728;7.108;2022-10-26T15:38:51;19.90;99.90
5466;DHT22;2755;50.728;7.108;2022-10-26T15:46:11;19.70;99.90
5466;DHT22;2755;50.728;7.108;2022-10-26T15:53:30;19.70;99.90
5466;DHT22;2755;50.728;7.108;2022-10-26T15:55:57;19.20;99.90
5466;DHT22;2755;50.728;7.108;2022-10-26T16:03:19;18.60;99.90
5466;DHT22;2755;50.728;7.108;2022-10-26T16:05:46;18.70;99.90
5466;DHT22;2755;50.728;7.108;2022-10-26T16:10:39;18.30;99.90
5466;DHT22;2755;50.728;7.108;2022-10-26T16:13:04;18.40;99.90
5466;DHT22;2755;50.728;7.108;2022-10-26T16:15:32;18.40;99.90
5466;DHT22;2755;50.728;7.108;2022-10-26T16:17:57;18.10;99.90
5466;DHT22;2755;50.728;7.108;2022-10-26T16:22:52;18.30;99.90
5466;DHT22;2755;50.728;7.108;2022-10-26T16:27:45;17.80;99.90
5466;DHT22;2755;50.728;7.108;2022-10-26T16:32:38;17.90;99.90
5466;DHT22;2755;50.728;7.108;2022-10-26T16:35:04;18.10;99.90
5466;DHT22;2755;50.728;7.108;2022-10-26T16:39:57;17.90;99.90
5466;DHT22;2755;50.728;7.108;2022-10-26T16:42:23;18.00;99.90
5466;DHT22;2755;50.728;7.108;2022-10-26T16:47:15;17.70;99.90
5466;DHT22;2755;50.728;7.108;2022-10-26T16:49:41;17.70;99.90
5466;DHT22;2755;50.728;7.108;2022-10-26T16:52:11;17.50;99.90
5466;DHT22;2755;50.728;7.108;2022-10-26T16:54:37;17.60;99.90
5466;DHT22;2755;50.728;7.108;2022-10-26T16:59:29;17.70;99.90
5466;DHT22;2755;50.728;7.108;2022-10-26T17:01:55;17.60;99.90
5466;DHT22;2755;50.728;7.108;2022-10-26T17:06:46;17.00;99.90
5466;DHT22;2755;50.728;7.108;2022-10-26T17:09:12;17.60;99.90
5466;DHT22;2755;50.728;7.108;2022-10-26T17:11:37;17.20;99.90
5466;DHT22;2755;50.728;7.108;2022-10-26T17:16:29;17.20;99.90
5466;DHT22;2755;50.728;7.108;2022-10-26T17:18:55;17.30;99.90
5466;DHT22;2755;50.728;7.108;2022-10-26T17:21:33;17.00;99.90
5466;DHT22;2755;50.728;7.108;2022-10-26T17:24:00;16.90;99.90
5466;DHT22;2755;50.728;7.108;2022-10-26T17:26:26;15.40;99.90
5466;DHT22;2755;50.728;7.108;2022-10-26T17:28:53;17.30;99.90
5466;DHT22;2755;50.728;7.108;2022-10-26T17:33:46;16.80;99.90
5466;DHT22;2755;50.728;7.108;2022-10-26T17:36:17;17.00;99.90
5466;DHT22;2755;50.728;7.108;2022-10-26T17:38:45;17.00;99.90
5466;DHT22;2755;50.728;7.108;2022-10-26T17:41:13;15.90;99.90
5466;DHT22;2755;50.728;7.108;2022-10-26T17:43:41;16.60;99.90
5466;DHT22;2755;50.728;7.108;2022-10-26T17:46:10;16.90;99.90
5466;DHT22;2755;50.728;7.108;2022-10-26T17:48:36;16.40;99.90
5466;DHT22;2755;50.728;7.108;2022-10-26T17:51:04;16.60;99.90
5466;DHT22;2755;50.728;7.108;2022-10-26T17:53:30;16.40;99.90
5466;DHT22;2755;50.728;7.108;2022-10-26T17:56:03;16.80;99.90
5466;DHT22;2755;50.728;7.108;2022-10-26T17:58:30;16.30;99.90
5466;DHT22;2755;50.728;7.108;2022-10-26T18:01:03;16.40;99.90
5466;DHT22;2755;50.728;7.108;2022-10-26T18:03:29;16.70;99.90
5466;DHT22;2755;50.728;7.108;2022-10-26T18:05:55;16.40;99.90
5466;DHT22;2755;50.728;7.108;2022-10-26T18:08:21;16.00;99.90
5466;DHT22;2755;50.728;7.108;2022-10-26T18:10:48;16.40;99.90
5466;DHT22;2755;50.728;7.108;2022-10-26T18:13:14;16.10;99.90
5466;DHT22;2755;50.728;7.108;2022-10-26T18:15:40;15.70;99.90
5466;DHT22;2755;50.728;7.108;2022-10-26T18:18:05;16.10;99.90
5466;DHT22;2755;50.728;7.108;2022-10-26T18:22:57;16.00;99.90
5466;DHT22;2755;50.728;7.108;2022-10-26T18:25:24;16.20;99.90
5466;DHT22;2755;50.728;7.108;2022-10-26T18:27:49;15.40;99.90
5466;DHT22;2755;50.728;7.108;2022-10-26T18:32:41;15.40;99.90
5466;DHT22;2755;50.728;7.108;2022-10-26T18:35:07;15.60;99.90
5466;DHT22;2755;50.728;7.108;2022-10-26T18:42:24;15.30;99.90
5466;DHT22;2755;50.728;7.108;2022-10-26T18:44:50;15.50;99.90
5466;DHT22;2755;50.728;7.108;2022-10-26T18:52:08;15.40;99.90
5466;DHT22;2755;50.728;7.108;2022-10-26T18:57:00;15.40;99.90
5466;DHT22;2755;50.728;7.108;2022-10-26T18:59:25;15.70;99.90
5466;DHT22;2755;50.728;7.108;2022-10-26T19:01:51;15.10;99.90
5466;DHT22;2755;50.728;7.108;2022-10-26T19:04:20;14.90;99.90
5466;DHT22;2755;50.728;7.108;2022-10-26T19:06:46;15.10;99.90
5466;DHT22;2755;50.728;7.108;2022-10-26T19:09:13;15.40;99.90
5466;DHT22;2755;50.728;7.108;2022-10-26T19:11:40;15.10;99.90
5466;DHT22;2755;50.728;7.108;2022-10-26T19:14:07;14.90;99.90
5466;DHT22;2755;50.728;7.108;2022-10-26T19:16:33;15.10;99.90
5466;DHT22;2755;50.728;7.108;2022-10-26T19:19:00;15.10;99.90
5466;DHT22;2755;50.728;7.108;2022-10-26T19:21:26;14.90;99.90
5466;DHT22;2755;50.728;7.108;2022-10-26T19:23:55;14.40;99.90
5466;DHT22;2755;50.728;7.108;2022-10-26T19:26:26;14.50;99.90
5466;DHT22;2755;50.728;7.108;2022-10-26T19:31:23;14.70;99.90
5466;DHT22;2755;50.728;7.108;2022-10-26T19:33:49;14.90;99.90
5466;DHT22;2755;50.728;7.108;2022-10-26T19:36:15;14.00;99.90
5466;DHT22;2755;50.728;7.108;2022-10-26T19:41:09;14.20;99.90
5466;DHT22;2755;50.728;7.108;2022-10-26T19:43:36;14.80;99.90
5466;DHT22;2755;50.728;7.108;2022-10-26T19:46:24;14.70;99.90
5466;DHT22;2755;50.728;7.108;2022-10-26T19:48:58;14.40;99.90
5466;DHT22;2755;50.728;7.108;2022-10-26T19:51:25;15.00;99.90
5466;DHT22;2755;50.728;7.108;2022-10-26T19:53:51;14.60;99.90
5466;DHT22;2755;50.728;7.108;2022-10-26T19:56:17;14.40;99.90
5466;DHT22;2755;50.728;7.108;2022-10-26T19:58:44;14.70;99.90
5466;DHT22;2755;50.728;7.108;2022-10-26T20:01:11;14.90;99.90
5466;DHT22;2755;50.728;7.108;2022-10-26T20:06:05;14.80;99.90
5466;DHT22;2755;50.728;7.108;2022-10-26T20:08:34;14.90;99.90
5466;DHT22;2755;50.728;7.108;2022-10-26T20:11:00;15.00;99.90
5466;DHT22;2755;50.728;7.108;2022-10-26T20:13:26;14.80;99.90
5466;DHT22;2755;50.728;7.108;2022-10-26T20:15:52;15.20;99.90
5466;DHT22;2755;50.728;7.108;2022-10-26T20:18:18;14.90;99.90
5466;DHT22;2755;50.728;7.108;2022-10-26T20:23:10;15.30;99.90
5466;DHT22;2755;50.728;7.108;2022-10-26T20:25:37;15.00;99.90
5466;DHT22;2755;50.728;7.108;2022-10-26T20:28:04;15.40;99.90
5466;DHT22;2755;50.728;7.108;2022-10-26T20:30:31;15.10;99.90
5466;DHT22;2755;50.728;7.108;2022-10-26T20:32:57;15.10;99.90
5466;DHT22;2755;50.728;7.108;2022-10-26T20:35:23;15.30;99.90
5466;DHT22;2755;50.728;7.108;2022-10-26T20:40:15;15.10;99.90
5466;DHT22;2755;50.728;7.108;2022-10-26T20:42:41;14.80;99.90
5466;DHT22;2755;50.728;7.108;2022-10-26T20:45:30;14.50;99.90
5466;DHT22;2755;50.728;7.108;2022-10-26T20:47:57;14.70;99.90
5466;DHT22;2755;50.728;7.108;2022-10-26T20:50:25;14.90;99.90
5466;DHT22;2755;50.728;7.108;2022-10-26T20:58:39;10.50;99.90
5466;DHT22;2755;50.728;7.108;2022-10-26T21:03:45;14.50;99.90
5466;DHT22;2755;50.728;7.108;2022-10-26T21:08:37;14.30;99.90
5466;DHT22;2755;50.728;7.108;2022-10-26T21:11:02;13.80;99.90
5466;DHT22;2755;50.728;7.108;2022-10-26T21:13:28;14.50;99.90
5466;DHT22;2755;50.728;7.108;2022-10-26T21:15:53;14.50;99.90
5466;DHT22;2755;50.728;7.108;2022-10-26T21:18:19;14.80;99.90
5466;DHT22;2755;50.728;7.108;2022-10-26T21:20:44;14.70;99.90
5466;DHT22;2755;50.728;7.108;2022-10-26T21:25:36;14.00;99.90
5466;DHT22;2755;50.728;7.108;2022-10-26T21:28:03;14.40;99.90
5466;DHT22;2755;50.728;7.108;2022-10-26T21:30:29;14.50;99.90
5466;DHT22;2755;50.728;7.108;2022-10-26T21:32:54;14.60;99.90
5466;DHT22;2755;50.728;7.108;2022-10-26T21:37:46;14.80;99.90
5466;DHT22;2755;50.728;7.108;2022-10-26T21:40:12;14.60;99.90
5466;DHT22;2755;50.728;7.108;2022-10-26T21:42:38;13.50;99.90
5466;DHT22;2755;50.728;7.108;2022-10-26T21:45:04;14.50;99.90
5466;DHT22;2755;50.728;7.108;2022-10-26T21:47:29;14.10;99.90